createdAt,value
2022-11-19T00:01:45.852Z,14.13
2022-11-19T00:04:16.420Z,12.63
2022-11-19T00:06:46.953Z,12.40
2022-11-19T00:09:18.004Z,11.97
2022-11-19T00:12:07.534Z,11.60
2022-11-19T00:14:41.132Z,11.47
2022-11-19T00:17:13.715Z,11.40
2022-11-19T00:19:46.235Z,11.20
2022-11-19T00:22:19.237Z,11.40
2022-11-19T00:24:49.293Z,11.73
2022-11-19T00:27:24.845Z,12.07
2022-11-19T00:29:55.246Z,13.57
2022-11-19T00:32:26.309Z,12.07
2022-11-19T00:34:58.561Z,11.93
2022-11-19T00:37:29.503Z,11.83
2022-11-19T00:40:01.623Z,11.30
2022-11-19T00:42:33.553Z,12.07
2022-11-19T00:45:04.610Z,12.53
2022-11-19T00:47:35.219Z,11.17
2022-11-19T00:50:06.930Z,12.67
2022-11-19T00:52:39.249Z,13.57
2022-11-19T00:55:11.222Z,13.07
2022-11-19T00:57:41.846Z,12.97
2022-11-19T01:00:13.431Z,12.87
2022-11-19T01:02:45.006Z,13.67
2022-11-19T01:05:15.927Z,12.50
2022-11-19T01:07:46.516Z,12.23
2022-11-19T01:10:19.818Z,12.23
2022-11-19T01:13:11.069Z,13.23
2022-11-19T01:15:41.517Z,13.37
2022-11-19T01:18:12.739Z,12.83
2022-11-19T01:20:43.311Z,13.70
2022-11-19T01:23:16.114Z,13.23
2022-11-19T01:25:46.821Z,12.63
2022-11-19T01:28:18.911Z,15.07
2022-11-19T01:30:49.496Z,13.43
2022-11-19T01:33:22.888Z,13.70
2022-11-19T01:36:01.602Z,14.43
2022-11-19T01:38:34.702Z,13.73
2022-11-19T01:41:06.172Z,13.07
2022-11-19T01:43:54.117Z,12.93
2022-11-19T01:46:28.684Z,11.17
2022-11-19T01:49:21.655Z,11.03
2022-11-19T01:52:00.150Z,10.40
2022-11-19T01:54:37.688Z,11.83
2022-11-19T01:57:11.217Z,10.63
2022-11-19T01:59:45.008Z,11.33
2022-11-19T02:02:15.655Z,11.23
2022-11-19T02:04:46.732Z,11.03
2022-11-19T02:07:17.816Z,11.70
2022-11-19T02:09:51.412Z,12.47
2022-11-19T02:12:43.122Z,11.47
2022-11-19T02:15:32.872Z,10.17
2022-11-19T02:18:13.876Z,11.17
2022-11-19T02:20:56.764Z,11.20
2022-11-19T02:23:48.105Z,10.60
2022-11-19T02:26:39.813Z,12.13
2022-11-19T02:29:33.343Z,10.73
2022-11-19T02:32:13.263Z,10.60
2022-11-19T02:34:56.298Z,9.57
2022-11-19T02:37:37.249Z,9.27
2022-11-19T02:40:16.710Z,9.03
2022-11-19T02:43:03.684Z,8.30
2022-11-19T02:45:46.888Z,9.00
2022-11-19T02:48:29.277Z,9.70
2022-11-19T02:51:02.679Z,9.83
2022-11-19T02:53:34.882Z,9.27
2022-11-19T02:56:39.728Z,9.00
2022-11-19T02:59:28.339Z,9.13
2022-11-19T03:02:17.885Z,9.03
2022-11-19T03:04:48.827Z,9.07
2022-11-19T03:07:24.016Z,9.20
2022-11-19T03:09:57.632Z,10.47
2022-11-19T03:12:43.415Z,10.13
2022-11-19T03:15:37.886Z,9.53
2022-11-19T03:18:17.452Z,10.53
2022-11-19T03:21:06.931Z,10.33
2022-11-19T03:23:43.283Z,9.63
2022-11-19T03:26:35.002Z,10.10
2022-11-19T03:29:08.723Z,10.03
2022-11-19T03:31:42.412Z,10.47
2022-11-19T03:34:17.568Z,11.00
2022-11-19T03:36:51.021Z,9.87
2022-11-19T03:39:22.637Z,10.10
2022-11-19T03:41:58.648Z,9.17
2022-11-19T03:44:37.582Z,10.07
2022-11-19T03:47:15.401Z,10.33
2022-11-19T03:49:48.793Z,10.00
2022-11-19T03:52:24.785Z,11.17
2022-11-19T03:54:57.428Z,11.43
2022-11-19T03:57:31.605Z,11.43
2022-11-19T04:00:04.686Z,10.27
2022-11-19T04:02:37.818Z,11.53
2022-11-19T04:05:10.616Z,11.20
2022-11-19T04:07:41.412Z,10.53
2022-11-19T04:10:13.005Z,10.40
2022-11-19T04:12:44.871Z,9.73
2022-11-19T04:15:17.952Z,9.33
2022-11-19T04:17:48.445Z,8.90
2022-11-19T04:20:27.754Z,9.10
2022-11-19T04:22:55.093Z,8.27
2022-11-19T04:25:27.312Z,8.40
2022-11-19T04:27:57.768Z,8.60
2022-11-19T04:30:30.904Z,8.57
2022-11-19T04:33:01.349Z,8.30
2022-11-19T04:35:33.837Z,8.77
2022-11-19T04:38:05.085Z,8.77
2022-11-19T04:40:37.972Z,8.57
2022-11-19T04:43:08.388Z,7.70
2022-11-19T04:45:40.722Z,8.03
2022-11-19T04:48:12.408Z,7.77
2022-11-19T04:50:44.420Z,7.77
2022-11-19T04:53:15.078Z,8.20
2022-11-19T04:55:45.571Z,7.40
2022-11-19T04:58:18.456Z,7.17
2022-11-19T05:00:50.725Z,8.00
2022-11-19T05:03:21.362Z,7.97
2022-11-19T05:05:55.173Z,7.97
2022-11-19T05:08:26.276Z,7.27
2022-11-19T05:10:56.701Z,7.53
2022-11-19T05:13:29.862Z,7.70
2022-11-19T05:16:00.386Z,8.07
2022-11-19T05:18:31.298Z,7.80
2022-11-19T05:21:03.158Z,7.63
2022-11-19T05:23:33.759Z,7.67
2022-11-19T05:26:06.606Z,7.87
2022-11-19T05:28:40.286Z,8.03
2022-11-19T05:31:11.351Z,7.77
2022-11-19T05:33:41.910Z,8.40
2022-11-19T05:36:14.045Z,7.97
2022-11-19T05:38:44.518Z,8.20
2022-11-19T05:41:15.162Z,8.07
2022-11-19T05:43:47.147Z,8.30
2022-11-19T05:46:17.518Z,7.73
2022-11-19T05:48:57.888Z,7.90
2022-11-19T05:51:29.374Z,7.30
2022-11-19T05:54:02.332Z,7.73
2022-11-19T05:56:34.651Z,7.50
2022-11-19T05:59:06.447Z,7.73
2022-11-19T06:01:40.807Z,8.27
2022-11-19T06:04:12.518Z,7.70
2022-11-19T06:06:45.115Z,8.43
2022-11-19T06:09:16.569Z,8.13
2022-11-19T06:11:50.156Z,8.57
2022-11-19T06:14:24.836Z,8.10
2022-11-19T06:16:59.222Z,8.53
2022-11-19T06:19:32.368Z,9.20
2022-11-19T06:22:06.749Z,8.77
2022-11-19T06:24:37.250Z,9.03
2022-11-19T06:27:07.614Z,10.43
2022-11-19T06:29:38.126Z,10.60
2022-11-19T06:32:12.445Z,9.80
2022-11-19T06:34:44.797Z,10.23
2022-11-19T06:37:18.394Z,9.93
2022-11-19T06:39:48.951Z,9.20
2022-11-19T06:42:38.524Z,9.43
2022-11-19T06:45:14.843Z,9.53
2022-11-19T06:47:49.572Z,9.87
2022-11-19T06:50:21.800Z,9.00
2022-11-19T06:52:52.415Z,8.57
2022-11-19T06:55:23.243Z,9.23
2022-11-19T06:57:56.152Z,9.57
2022-11-19T07:00:27.609Z,8.37
2022-11-19T07:02:58.196Z,8.47
2022-11-19T07:05:30.383Z,8.93
2022-11-19T07:08:03.202Z,9.27
2022-11-19T07:10:34.750Z,8.60
2022-11-19T07:13:06.972Z,8.77
2022-11-19T07:15:40.777Z,9.47
2022-11-19T07:18:21.085Z,8.23
2022-11-19T07:20:46.887Z,7.47
2022-11-19T07:23:18.514Z,7.63
2022-11-19T07:25:49.111Z,7.87
2022-11-19T07:28:22.145Z,7.77
2022-11-19T07:30:53.703Z,7.43
2022-11-19T07:33:24.452Z,7.77
2022-11-19T07:35:55.281Z,7.13
2022-11-19T07:38:25.859Z,6.77
2022-11-19T07:41:01.898Z,6.63
2022-11-19T07:43:30.458Z,6.33
2022-11-19T07:46:05.329Z,6.73
2022-11-19T07:48:36.200Z,6.13
2022-11-19T07:51:08.379Z,6.60
2022-11-19T07:53:39.071Z,6.40
2022-11-19T07:56:10.830Z,6.43
2022-11-19T07:58:41.462Z,7.23
2022-11-19T08:01:14.105Z,6.87
2022-11-19T08:03:47.195Z,6.73
2022-11-19T08:06:20.317Z,6.93
2022-11-19T08:08:50.847Z,7.03
2022-11-19T08:11:21.752Z,6.63
2022-11-19T08:13:53.883Z,6.37
2022-11-19T08:16:42.333Z,6.33
2022-11-19T08:19:17.986Z,7.10
2022-11-19T08:21:51.716Z,6.73
2022-11-19T08:24:24.805Z,5.97
2022-11-19T08:26:57.117Z,6.67
2022-11-19T08:29:29.080Z,6.47
2022-11-19T08:32:00.247Z,5.43
2022-11-19T08:34:32.304Z,5.80
2022-11-19T08:37:04.285Z,5.40
2022-11-19T08:39:34.679Z,5.97
2022-11-19T08:42:24.617Z,4.80
2022-11-19T08:44:57.640Z,6.10
2022-11-19T08:47:29.727Z,5.53
2022-11-19T08:50:02.098Z,4.87
2022-11-19T08:52:35.928Z,5.17
2022-11-19T08:55:08.714Z,5.00
2022-11-19T08:57:40.732Z,5.70
2022-11-19T09:00:17.271Z,5.03
2022-11-19T09:02:50.796Z,5.00
2022-11-19T09:05:21.530Z,5.40
2022-11-19T09:07:52.196Z,5.70
2022-11-19T09:10:22.978Z,5.27
2022-11-19T09:12:59.783Z,5.17
2022-11-19T09:15:28.859Z,5.30
2022-11-19T09:18:00.280Z,5.83
2022-11-19T09:20:30.678Z,5.37
2022-11-19T09:23:01.179Z,5.60
2022-11-19T09:25:45.118Z,5.47
2022-11-19T09:28:17.731Z,5.93
2022-11-19T09:30:57.018Z,5.50
2022-11-19T09:33:28.304Z,4.93
2022-11-19T09:35:58.812Z,5.30
2022-11-19T09:38:35.222Z,5.43
2022-11-19T09:41:25.268Z,5.30
2022-11-19T09:44:09.713Z,5.40
2022-11-19T09:46:43.620Z,4.83
2022-11-19T09:49:17.208Z,5.10
2022-11-19T09:51:53.641Z,4.90
2022-11-19T09:54:25.046Z,4.60
2022-11-19T09:57:04.095Z,4.30
2022-11-19T09:59:39.358Z,3.77
2022-11-19T10:02:29.113Z,3.93
2022-11-19T10:04:57.844Z,4.20
2022-11-19T10:07:47.584Z,3.97
2022-11-19T10:10:42.560Z,3.67
2022-11-19T10:13:39.771Z,4.20
2022-11-19T10:16:17.316Z,3.60
2022-11-19T10:18:53.789Z,3.50
2022-11-19T10:21:37.506Z,3.90
2022-11-19T10:24:19.899Z,3.80
2022-11-19T10:26:54.356Z,3.90
2022-11-19T10:29:27.941Z,4.00
2022-11-19T10:32:19.670Z,4.10
2022-11-19T10:34:52.861Z,3.53
2022-11-19T10:37:24.839Z,4.30
2022-11-19T10:39:58.318Z,4.33
2022-11-19T10:42:31.864Z,4.23
2022-11-19T10:45:09.667Z,4.30
2022-11-19T10:48:10.496Z,4.43
2022-11-19T10:50:42.400Z,3.70
2022-11-19T10:53:35.743Z,3.57
2022-11-19T10:56:09.283Z,4.10
2022-11-19T10:58:45.456Z,3.70
2022-11-19T11:01:26.590Z,3.97
2022-11-19T11:04:15.056Z,4.00
2022-11-19T11:07:04.666Z,4.07
2022-11-19T11:09:43.661Z,4.50
2022-11-19T11:12:45.966Z,4.60
2022-11-19T11:15:28.350Z,4.40
2022-11-19T11:18:08.568Z,4.50
2022-11-19T11:20:40.877Z,4.43
2022-11-19T11:23:17.409Z,4.83
2022-11-19T11:26:01.559Z,4.83
2022-11-19T11:28:32.349Z,5.00
2022-11-19T11:31:11.735Z,4.70
2022-11-19T11:33:45.917Z,4.80
2022-11-19T11:36:19.346Z,5.20
2022-11-19T11:38:55.815Z,4.93
2022-11-19T11:44:21.920Z,5.50
2022-11-19T11:46:55.091Z,5.27
2022-11-19T11:49:46.525Z,5.00
2022-11-19T11:52:20.119Z,4.87
2022-11-19T11:55:05.735Z,4.90
2022-11-19T11:57:52.797Z,5.13
2022-11-19T12:00:44.656Z,5.40
2022-11-19T12:03:21.308Z,5.60
2022-11-19T12:06:09.903Z,5.50
2022-11-19T12:08:46.140Z,5.50
2022-11-19T12:11:56.229Z,5.33
2022-11-19T12:14:40.889Z,5.57
2022-11-19T12:17:29.151Z,5.53
2022-11-19T12:20:09.960Z,5.57
2022-11-19T12:22:43.819Z,5.40
2022-11-19T12:25:18.875Z,5.70
2022-11-19T12:28:08.834Z,5.97
2022-11-19T12:30:45.094Z,5.67
2022-11-19T12:33:24.600Z,5.60
2022-11-19T12:36:17.713Z,6.20
2022-11-19T12:39:09.040Z,7.10
2022-11-19T12:41:56.602Z,6.77
2022-11-19T12:44:59.115Z,6.23
2022-11-19T12:47:53.009Z,6.60
2022-11-19T12:50:29.029Z,5.60
2022-11-19T12:53:19.276Z,6.10
2022-11-19T12:56:09.855Z,6.10
2022-11-19T12:58:48.439Z,6.13
2022-11-19T13:01:25.075Z,6.00
2022-11-19T13:04:18.825Z,5.87
2022-11-19T13:06:58.122Z,7.03
2022-11-19T13:09:37.294Z,7.00
2022-11-19T13:12:10.696Z,6.97
2022-11-19T13:14:55.002Z,6.67
2022-11-19T13:17:31.947Z,6.47
2022-11-19T13:20:12.504Z,6.80
2022-11-19T13:22:46.511Z,6.20
2022-11-19T13:25:23.518Z,6.33
2022-11-19T13:27:56.925Z,6.63
2022-11-19T13:30:32.126Z,6.93
2022-11-19T13:33:07.193Z,6.43
2022-11-19T13:35:55.684Z,6.70
2022-11-19T13:38:32.838Z,6.30
2022-11-19T13:41:23.434Z,6.27
2022-11-19T13:44:16.185Z,6.90
2022-11-19T13:46:58.700Z,7.10
2022-11-19T13:49:37.032Z,7.20
2022-11-19T13:52:11.803Z,6.60
2022-11-19T13:54:45.470Z,6.70
2022-11-19T13:57:37.911Z,6.87
2022-11-19T14:00:31.690Z,6.30
2022-11-19T14:03:23.566Z,7.00
2022-11-19T14:06:17.655Z,7.17
2022-11-19T14:09:03.280Z,6.77
2022-11-19T14:11:46.974Z,7.60
2022-11-19T14:14:48.688Z,6.07
2022-11-19T14:18:04.449Z,6.50
2022-11-19T14:20:59.445Z,6.00
2022-11-19T14:24:03.345Z,6.90
2022-11-19T14:26:55.485Z,6.47
2022-11-19T14:29:37.629Z,6.50
2022-11-19T14:32:12.738Z,7.20
2022-11-19T14:34:51.289Z,7.10
2022-11-19T14:37:27.836Z,6.87
2022-11-19T14:40:02.845Z,7.00
2022-11-19T14:42:41.668Z,6.73
2022-11-19T14:45:15.307Z,6.90
2022-11-19T14:47:47.270Z,6.97
2022-11-19T14:50:32.712Z,7.03
2022-11-19T14:53:06.457Z,7.40
2022-11-19T14:55:40.624Z,7.50
2022-11-19T14:58:24.955Z,7.27
2022-11-19T15:01:10.998Z,7.67
2022-11-19T15:03:46.186Z,7.47
2022-11-19T15:06:19.382Z,8.67
2022-11-19T15:08:57.263Z,7.83
2022-11-19T15:11:47.514Z,8.33
2022-11-19T15:14:38.701Z,7.07
2022-11-19T15:17:11.605Z,7.77
2022-11-19T15:19:45.038Z,7.73
2022-11-19T15:22:38.665Z,8.00
2022-11-19T15:25:16.250Z,12.07
2022-11-19T15:28:06.618Z,7.33
2022-11-19T15:30:58.316Z,6.93
2022-11-19T15:34:02.591Z,6.97
2022-11-19T15:36:46.561Z,7.07
2022-11-19T15:39:23.102Z,7.07
2022-11-19T15:42:04.810Z,7.77
2022-11-19T15:44:38.596Z,7.80
2022-11-19T15:47:15.465Z,7.97
2022-11-19T15:49:49.943Z,7.77
2022-11-19T15:52:33.722Z,7.63
2022-11-19T15:55:22.959Z,7.23
2022-11-19T15:57:56.316Z,7.10
2022-11-19T16:00:26.276Z,7.13
2022-11-19T16:03:08.916Z,6.60
2022-11-19T16:05:46.331Z,7.90
2022-11-19T16:08:17.017Z,6.97
2022-11-19T16:10:49.949Z,7.07
2022-11-19T16:13:44.217Z,6.93
2022-11-19T16:16:39.154Z,6.67
2022-11-19T16:19:10.116Z,7.23
2022-11-19T16:21:43.137Z,6.97
2022-11-19T16:24:35.554Z,7.77
2022-11-19T16:27:09.459Z,7.70
2022-11-19T16:29:46.957Z,7.70
2022-11-19T16:32:21.855Z,8.23
2022-11-19T16:34:53.477Z,7.93
2022-11-19T16:37:26.266Z,8.13
2022-11-19T16:39:56.907Z,8.00
2022-11-19T16:42:33.711Z,8.13
2022-11-19T16:45:10.334Z,7.97
2022-11-19T16:47:43.532Z,8.47
2022-11-19T16:50:32.340Z,8.33
2022-11-19T16:53:05.427Z,8.17
2022-11-19T16:55:44.908Z,8.97
2022-11-19T16:58:19.030Z,8.90
2022-11-19T17:00:52.977Z,8.60
2022-11-19T17:03:28.162Z,8.67
2022-11-19T17:06:04.036Z,9.07
2022-11-19T17:08:38.408Z,8.50
2022-11-19T17:11:35.666Z,9.40
2022-11-19T17:14:23.988Z,9.70
2022-11-19T17:16:55.725Z,8.90
2022-11-19T17:19:34.343Z,9.80
2022-11-19T17:22:08.230Z,9.13
2022-11-19T17:24:42.306Z,9.93
2022-11-19T17:27:37.572Z,8.97
2022-11-19T17:30:29.592Z,9.70
2022-11-19T17:33:05.821Z,9.80
2022-11-19T17:35:45.423Z,9.83
2022-11-19T17:38:31.439Z,9.33
2022-11-19T17:41:09.349Z,9.70
2022-11-19T17:44:00.635Z,10.33
2022-11-19T17:46:32.803Z,10.23
2022-11-19T17:49:05.547Z,10.47
2022-11-19T17:51:36.446Z,11.00
2022-11-19T17:54:10.052Z,10.10
2022-11-19T17:56:43.269Z,10.97
2022-11-19T17:59:15.104Z,10.00
2022-11-19T18:01:47.796Z,10.33
2022-11-19T18:04:22.158Z,9.87
2022-11-19T18:06:54.477Z,9.97
2022-11-19T18:09:32.212Z,10.33
2022-11-19T18:12:00.898Z,10.23
2022-11-19T18:14:36.866Z,10.70
2022-11-19T18:17:15.686Z,10.40
2022-11-19T18:19:49.856Z,10.90
2022-11-19T18:22:23.482Z,10.33
2022-11-19T18:24:58.571Z,11.10
2022-11-19T18:27:32.645Z,10.77
2022-11-19T18:30:07.902Z,11.80
2022-11-19T18:32:40.282Z,11.57
2022-11-19T18:35:17.887Z,10.47
2022-11-19T18:37:48.494Z,10.60
2022-11-19T18:40:23.284Z,10.47
2022-11-19T18:43:13.562Z,10.40
2022-11-19T18:45:44.606Z,10.30
2022-11-19T18:48:21.958Z,10.70
2022-11-19T18:50:55.568Z,10.90
2022-11-19T18:53:26.131Z,10.63
2022-11-19T18:56:05.501Z,11.30
2022-11-19T18:58:37.767Z,12.40
2022-11-19T19:01:08.549Z,10.87
2022-11-19T19:03:41.115Z,11.67
2022-11-19T19:06:13.851Z,11.23
2022-11-19T19:08:49.400Z,10.73
2022-11-19T19:11:45.915Z,11.33
2022-11-19T19:14:19.205Z,11.20
2022-11-19T19:16:51.826Z,11.00
2022-11-19T19:19:24.709Z,12.20
2022-11-19T19:21:58.078Z,11.50
2022-11-19T19:24:30.052Z,11.73
2022-11-19T19:27:02.879Z,11.93
2022-11-19T19:29:33.514Z,11.33
2022-11-19T19:32:05.220Z,11.07
2022-11-19T19:34:37.318Z,11.70
2022-11-19T19:37:10.983Z,12.60
2022-11-19T19:39:44.063Z,11.87
2022-11-19T19:42:15.458Z,12.17
2022-11-19T19:44:46.764Z,12.07
2022-11-19T19:47:18.627Z,11.50
2022-11-19T19:49:49.116Z,11.47
2022-11-19T19:52:20.197Z,10.77
2022-11-19T19:54:50.885Z,10.57
2022-11-19T19:57:21.479Z,11.40
2022-11-19T19:59:55.718Z,11.10
2022-11-19T20:02:27.464Z,11.60
2022-11-19T20:05:00.785Z,11.80
2022-11-19T20:07:34.826Z,11.57
2022-11-19T20:10:06.959Z,11.30
2022-11-19T20:12:56.123Z,11.03
2022-11-19T20:15:27.995Z,11.43
2022-11-19T20:17:58.517Z,10.80
2022-11-19T20:20:30.771Z,10.30
2022-11-19T20:23:01.344Z,10.40
2022-11-19T20:25:33.723Z,10.27
2022-11-19T20:28:05.682Z,11.10
2022-11-19T20:30:37.420Z,10.53
2022-11-19T20:33:09.241Z,10.73
2022-11-19T20:35:54.159Z,10.30
2022-11-19T20:38:24.874Z,10.40
2022-11-19T20:41:01.426Z,11.13
2022-11-19T20:43:52.866Z,10.87
2022-11-19T20:46:26.320Z,10.67
2022-11-19T20:48:58.602Z,11.93
2022-11-19T20:51:30.937Z,11.77
2022-11-19T20:54:03.233Z,11.33
2022-11-19T20:56:33.817Z,11.07
2022-11-19T20:59:04.967Z,11.67
2022-11-19T21:01:38.214Z,11.47
2022-11-19T21:04:13.785Z,12.77
2022-11-19T21:06:44.999Z,12.17
2022-11-19T21:09:16.086Z,12.43
2022-11-19T21:11:47.388Z,12.17
2022-11-19T21:14:19.066Z,12.50
2022-11-19T21:16:53.006Z,12.60
2022-11-19T21:19:24.181Z,12.90
2022-11-19T21:21:56.747Z,12.90
2022-11-19T21:24:28.786Z,12.57
2022-11-19T21:27:00.241Z,12.83
2022-11-19T21:29:34.200Z,12.50
2022-11-19T21:32:05.652Z,12.43
2022-11-19T21:34:36.121Z,12.20
2022-11-19T21:37:08.190Z,12.00
2022-11-19T21:39:39.543Z,12.40
2022-11-19T21:42:12.628Z,12.17
2022-11-19T21:44:43.867Z,12.50
2022-11-19T21:47:19.375Z,12.10
2022-11-19T21:49:53.068Z,12.77
2022-11-19T21:52:25.955Z,12.23
2022-11-19T21:54:57.043Z,11.43
2022-11-19T21:57:30.418Z,13.83
2022-11-19T22:00:02.009Z,13.70
2022-11-19T22:02:34.130Z,13.00
2022-11-19T22:05:06.353Z,12.57
2022-11-19T22:07:37.244Z,12.10
2022-11-19T22:10:11.246Z,11.87
2022-11-19T22:12:43.312Z,11.73
2022-11-19T22:15:16.515Z,12.00
2022-11-19T22:17:47.658Z,11.63
2022-11-19T22:20:23.504Z,11.43
2022-11-19T22:22:57.293Z,11.33
2022-11-19T22:25:28.255Z,11.27
2022-11-19T22:28:02.828Z,11.43
2022-11-19T22:30:33.609Z,11.30
2022-11-19T22:33:06.442Z,12.30
2022-11-19T22:35:38.685Z,12.40
2022-11-19T22:38:09.580Z,11.80
2022-11-19T22:40:41.208Z,12.17
2022-11-19T22:43:13.679Z,11.53
2022-11-19T22:45:47.184Z,12.13
2022-11-19T22:48:19.140Z,12.17
2022-11-19T22:50:52.540Z,11.60
2022-11-19T22:53:24.576Z,11.77
2022-11-19T22:55:57.124Z,12.17
2022-11-19T22:58:27.748Z,11.63
2022-11-19T23:00:58.524Z,12.07
2022-11-19T23:03:32.176Z,11.53
2022-11-19T23:06:04.025Z,11.97
2022-11-19T23:08:39.846Z,11.93
2022-11-19T23:11:11.397Z,12.60
2022-11-19T23:13:46.074Z,12.23
2022-11-19T23:16:19.292Z,11.97
2022-11-19T23:18:52.441Z,12.50
2022-11-19T23:21:27.591Z,12.73
2022-11-19T23:24:02.984Z,12.33
2022-11-19T23:26:35.509Z,11.97
2022-11-19T23:29:07.525Z,12.47
2022-11-19T23:31:44.857Z,12.10
2022-11-19T23:34:16.754Z,12.10
2022-11-19T23:36:49.191Z,12.23
2022-11-19T23:39:22.145Z,12.37
2022-11-19T23:41:52.899Z,12.70
2022-11-19T23:44:25.841Z,11.83
2022-11-19T23:46:56.414Z,13.33
2022-11-19T23:49:28.120Z,11.97
2022-11-19T23:51:59.197Z,11.40
2022-11-19T23:54:31.464Z,11.27
2022-11-19T23:57:03.406Z,11.23
2022-11-19T23:59:36.220Z,11.43
